Buoy 62726

sailwx.info

Track history (hours):
 
Tides and Currents Weather Stations Pressure Air Temp Water Temp Dewpoint Dewpoint Depression Visibility Wind Speed Wind Dir Waves Ship Positions

Drifting buoy 62726

Last reported at 2014-Dec-21 07:00 UTC. Time now 2014-Dec-21 09:16 UTC.
Position N 40°39' W 016°30'.

Water temperature 14.7 ° C

Date/timePositionNaut miles runAvg speedWind from/ knotsBaromVisibWave heightAir tempDewpointWater temp
2014-Dec-21 07:00N 40°39' W 016°30'1 0.5 14.7
2014-Dec-21 06:00N 40°39' W 016°29'1 0.7 14.7
2014-Dec-21 05:00N 40°40' W 016°28'2 1.0 14.7
2014-Dec-21 03:00N 40°40' W 016°26'0 0.1 14.7
2014-Dec-20 23:00N 40°40' W 016°26'1 0.3 14.7
2014-Dec-20 21:00N 40°40' W 016°25'0 0.3 14.7
2014-Dec-20 20:00N 40°40' W 016°25'1 0.6 14.7
2014-Dec-20 19:00N 40°41' W 016°26'1 0.7 14.7
2014-Dec-20 18:00N 40°41' W 016°25'0 0.3 14.7
2014-Dec-20 17:00N 40°42' W 016°25'1 1.1 14.8
2014-Dec-20 16:00N 40°41' W 016°26'0 0.3 14.8
2014-Dec-20 15:00N 40°41' W 016°25'0 0.0 14.8
2014-Dec-20 14:00N 40°41' W 016°25'2 1.2 14.7
2014-Dec-20 12:00N 40°41' W 016°22'0 0.0 14.7
2014-Dec-20 11:00N 40°41' W 016°22'0 0.0 14.6
2014-Dec-20 09:00N 40°41' W 016°22'0 0.3 14.6
2014-Dec-20 08:00N 40°41' W 016°22'1 0.5 14.6
2014-Dec-20 07:00N 40°42' W 016°22'1 1.3 14.6
2014-Dec-20 06:00N 40°43' W 016°21'0 0.0 14.6
2014-Dec-20 04:00N 40°43' W 016°21'0 0.4 14.6
2014-Dec-20 03:00N 40°43' W 016°21'1 0.1 14.6
2014-Dec-19 22:00N 40°43' W 016°20'1 1.4 14.6
2014-Dec-19 21:00N 40°43' W 016°18'0 0.0 14.6
2014-Dec-19 20:00N 40°43' W 016°18'0 0.0 14.6
2014-Dec-19 18:00N 40°43' W 016°18'2 0.8 14.6
2014-Dec-19 16:00N 40°43' W 016°16'0 0.0 14.6
2014-Dec-19 15:00N 40°43' W 016°16'0 0.0 14.6
2014-Dec-19 14:00N 40°43' W 016°16'1 0.4 14.6
2014-Dec-19 12:00N 40°44' W 016°17'0 0.0 14.6
2014-Dec-19 11:00N 40°44' W 016°17'0 0.0 14.6
2014-Dec-19 10:00N 40°44' W 016°17'0 0.2 14.6
2014-Dec-19 08:00N 40°44' W 016°17'0 0.2 14.5
2014-Dec-19 07:00N 40°44' W 016°18'0 0.1 14.5
2014-Dec-19 06:00N 40°44' W 016°17'0 0.0 14.5
2014-Dec-19 04:00N 40°44' W 016°17'0 0.3 14.5
2014-Dec-19 03:00N 40°44' W 016°17'0 0.0 14.5
2014-Dec-19 02:00N 40°44' W 016°17'0 0.1 14.5
2014-Dec-18 23:00N 40°44' W 016°17'0 0.1 14.6
2014-Dec-18 22:00N 40°44' W 016°17'0 0.0 14.6
2014-Dec-18 21:00N 40°44' W 016°17'1 0.4 14.6
2014-Dec-18 19:00N 40°45' W 016°17'0 0.2 14.6
2014-Dec-18 17:00N 40°45' W 016°17'1 1.3 14.6
2014-Dec-18 16:00N 40°46' W 016°17'0 0.0 14.6
2014-Dec-18 14:00N 40°46' W 016°17'0 0.2 14.6
2014-Dec-18 12:00N 40°46' W 016°18'0 0.4 14.6
2014-Dec-18 11:00N 40°46' W 016°18'0 0.4 14.6
2014-Dec-18 10:00N 40°46' W 016°17'0 0.1 14.6
2014-Dec-18 08:00N 40°46' W 016°18'0 0.1 14.6
2014-Dec-18 07:00N 40°46' W 016°18'0 0.1 14.6
2014-Dec-18 06:00N 40°46' W 016°18'0 0.4 14.6
2014-Dec-18 05:00N 40°46' W 016°17'0 0.0 14.6
2014-Dec-18 04:00N 40°46' W 016°17'1 0.5 14.6
2014-Dec-18 03:00N 40°47' W 016°17'2 0.4 14.6
2014-Dec-17 23:00N 40°48' W 016°16'0 0.1 14.6
2014-Dec-17 21:00N 40°49' W 016°16'1 1.1 14.6
2014-Dec-17 20:00N 40°50' W 016°16'0 0.4 14.6
2014-Dec-17 19:00N 40°50' W 016°16'0 0.0 14.6
2014-Dec-17 18:00N 40°50' W 016°16'1 1.1 14.6
2014-Dec-17 17:00N 40°50' W 016°18'1 0.6 14.6
2014-Dec-17 16:00N 40°51' W 016°18'2 0.9 14.6
2014-Dec-17 14:00N 40°51' W 016°15'0 0.0 14.6
2014-Dec-17 12:00N 40°51' W 016°15'0 0.0 14.6
2014-Dec-17 10:00N 40°51' W 016°15'2 1.9 14.6
2014-Dec-17 09:00N 40°53' W 016°14'0 0.0 14.6
2014-Dec-17 08:00N 40°53' W 016°14'1 0.6 14.6
2014-Dec-17 06:00N 40°54' W 016°13'3 0.8 14.6
2014-Dec-17 02:00N 40°56' W 016°11'2 0.5 14.6
2014-Dec-16 22:00N 40°57' W 016°09'0 0.0 14.6
2014-Dec-16 21:00N 40°57' W 016°09'0 0.0 14.6
2014-Dec-16 20:00N 40°57' W 016°09'1 0.3 14.6
2014-Dec-16 18:00N 40°57' W 016°08'9 0.5 14.6
2014-Dec-15 23:00N 41°03' W 016°00'0 0.0 14.7
2014-Dec-15 22:00N 41°03' W 016°00'0 0.0 14.7
2014-Dec-15 21:00N 41°03' W 016°00'1 0.7 14.7
2014-Dec-15 19:00N 41°04' W 015°58'4 3.5 14.7
2014-Dec-15 18:00N 41°07' W 015°56'0 0.0 14.7
2014-Dec-15 15:00N 41°07' W 015°56'0 0.0 14.7
2014-Dec-15 14:00N 41°07' W 015°56'2 1.5 14.7
2014-Dec-15 13:00N 41°08' W 015°57'0 0.0 14.7
2014-Dec-15 12:00N 41°08' W 015°57'0 0.0 14.7
2014-Dec-15 11:00N 41°08' W 015°57'2 1.0 14.7
2014-Dec-15 09:00N 41°07' W 015°55'0 0.0 14.7
2014-Dec-15 08:00N 41°07' W 015°55'0 0.0 14.7
2014-Dec-15 06:00N 41°07' W 015°55'6 5.5 14.7
2014-Dec-15 05:00N 41°12' W 015°51'0 0.0 14.7
2014-Dec-15 04:00N 41°12' W 015°51'0 0.0 14.7
2014-Dec-15 03:00N 41°12' W 015°51'0 0.0 14.7
2014-Dec-15 01:00N 41°12' W 015°51'1 0.3 14.7
2014-Dec-14 22:00N 41°13' W 015°52'1 0.6 14.7
2014-Dec-14 21:00N 41°13' W 015°52'0 0.0 14.7
2014-Dec-14 20:00N 41°13' W 015°52'0 0.0 14.7
2014-Dec-14 18:00N 41°13' W 015°52'0 0.0 14.7
2014-Dec-14 17:00N 41°13' W 015°52'1 0.9 14.7
2014-Dec-14 16:00N 41°13' W 015°50'0 0.0 14.7
2014-Dec-14 15:00N 41°13' W 015°50'0 0.5 14.7
2014-Dec-14 14:00N 41°13' W 015°51'1 0.4 14.7
2014-Dec-14 11:00N 41°14' W 015°50'4 3.6 14.7
2014-Dec-14 10:00N 41°16' W 015°46'0 0.0 14.7
2014-Dec-14 07:00N 41°16' W 015°46'0 0.0 14.7
2014-Dec-14 06:00N 41°16' W 015°46'2 1.9 14.7
2014-Dec-14 05:00N 41°18' W 015°46'2 1.0 14.7
2014-Dec-14 03:00N 41°20' W 015°47'0 0.1 14.7
2014-Dec-13 23:00N 41°19' W 015°47'16 0.6 14.7
2014-Dec-12 21:00N 41°32' W 015°33'2 0.5 15.0
2014-Dec-12 18:00N 41°33' W 015°31'2 2.4 15.0
2014-Dec-12 17:00N 41°35' W 015°32'5 0.5 15.0
2014-Dec-12 08:00N 41°39' W 015°35'1 0.3 15.1
2014-Dec-12 06:00N 41°39' W 015°35'0 0.5 15.1
2014-Dec-12 05:00N 41°39' W 015°35'0 0.0 15.1
2014-Dec-12 04:00N 41°39' W 015°35'3 0.6 15.2
2014-Dec-11 23:00N 41°42' W 015°32'0 0.0 15.2
2014-Dec-11 22:00N 41°42' W 015°32'3 2.6 15.2
2014-Dec-11 21:00N 41°44' W 015°30'1 0.2 15.2
2014-Dec-11 18:00N 41°44' W 015°31'0 0.0 15.4
2014-Dec-11 17:00N 41°44' W 015°31'1 0.8 15.4
2014-Dec-11 16:00N 41°44' W 015°31'2 1.8 15.4
2014-Dec-11 15:00N 41°45' W 015°33'2 2.0 15.3
2014-Dec-11 14:00N 41°45' W 015°31'0 0.0 15.3
2014-Dec-11 11:00N 41°45' W 015°31'1 0.3 15.3
2014-Dec-11 07:00N 41°45' W 015°29'   15.1
Track history (hours):
 
Tides and Currents Weather Stations Pressure Air Temp Water Temp Dewpoint Dewpoint Depression Visibility Wind Speed Wind Dir Waves Ship Positions

Drifting buoy 62726

Last reported at 2014-Dec-21 07:00 UTC. Time now 2014-Dec-21 09:16 UTC.
Position N 40°39' W 016°30'.

Water temperature 14.7 ° C

Date/timePositionNaut miles runAvg speedWind from/ knotsBaromVisibWave heightAir tempDewpointWater temp
2014-Dec-21 07:00N 40°39' W 016°30'1 0.5 14.7
2014-Dec-21 06:00N 40°39' W 016°29'1 0.7 14.7
2014-Dec-21 05:00N 40°40' W 016°28'2 1.0 14.7
2014-Dec-21 03:00N 40°40' W 016°26'0 0.1 14.7
2014-Dec-20 23:00N 40°40' W 016°26'1 0.3 14.7
2014-Dec-20 21:00N 40°40' W 016°25'0 0.3 14.7
2014-Dec-20 20:00N 40°40' W 016°25'1 0.6 14.7
2014-Dec-20 19:00N 40°41' W 016°26'1 0.7 14.7
2014-Dec-20 18:00N 40°41' W 016°25'0 0.3 14.7
2014-Dec-20 17:00N 40°42' W 016°25'1 1.1 14.8
2014-Dec-20 16:00N 40°41' W 016°26'0 0.3 14.8
2014-Dec-20 15:00N 40°41' W 016°25'0 0.0 14.8
2014-Dec-20 14:00N 40°41' W 016°25'2 1.2 14.7
2014-Dec-20 12:00N 40°41' W 016°22'0 0.0 14.7
2014-Dec-20 11:00N 40°41' W 016°22'0 0.0 14.6
2014-Dec-20 09:00N 40°41' W 016°22'0 0.3 14.6
2014-Dec-20 08:00N 40°41' W 016°22'1 0.5 14.6
2014-Dec-20 07:00N 40°42' W 016°22'1 1.3 14.6
2014-Dec-20 06:00N 40°43' W 016°21'0 0.0 14.6
2014-Dec-20 04:00N 40°43' W 016°21'0 0.4 14.6
2014-Dec-20 03:00N 40°43' W 016°21'1 0.1 14.6
2014-Dec-19 22:00N 40°43' W 016°20'1 1.4 14.6
2014-Dec-19 21:00N 40°43' W 016°18'0 0.0 14.6
2014-Dec-19 20:00N 40°43' W 016°18'0 0.0 14.6
2014-Dec-19 18:00N 40°43' W 016°18'2 0.8 14.6
2014-Dec-19 16:00N 40°43' W 016°16'0 0.0 14.6
2014-Dec-19 15:00N 40°43' W 016°16'0 0.0 14.6
2014-Dec-19 14:00N 40°43' W 016°16'1 0.4 14.6
2014-Dec-19 12:00N 40°44' W 016°17'0 0.0 14.6
2014-Dec-19 11:00N 40°44' W 016°17'0 0.0 14.6
2014-Dec-19 10:00N 40°44' W 016°17'0 0.2 14.6
2014-Dec-19 08:00N 40°44' W 016°17'0 0.2 14.5
2014-Dec-19 07:00N 40°44' W 016°18'0 0.1 14.5
2014-Dec-19 06:00N 40°44' W 016°17'0 0.0 14.5
2014-Dec-19 04:00N 40°44' W 016°17'0 0.3 14.5
2014-Dec-19 03:00N 40°44' W 016°17'0 0.0 14.5
2014-Dec-19 02:00N 40°44' W 016°17'0 0.1 14.5
2014-Dec-18 23:00N 40°44' W 016°17'0 0.1 14.6
2014-Dec-18 22:00N 40°44' W 016°17'0 0.0 14.6
2014-Dec-18 21:00N 40°44' W 016°17'1 0.4 14.6
2014-Dec-18 19:00N 40°45' W 016°17'0 0.2 14.6
2014-Dec-18 17:00N 40°45' W 016°17'1 1.3 14.6
2014-Dec-18 16:00N 40°46' W 016°17'0 0.0 14.6
2014-Dec-18 14:00N 40°46' W 016°17'0 0.2 14.6
2014-Dec-18 12:00N 40°46' W 016°18'0 0.4 14.6
2014-Dec-18 11:00N 40°46' W 016°18'0 0.4 14.6
2014-Dec-18 10:00N 40°46' W 016°17'0 0.1 14.6
2014-Dec-18 08:00N 40°46' W 016°18'0 0.1 14.6
2014-Dec-18 07:00N 40°46' W 016°18'0 0.1 14.6
2014-Dec-18 06:00N 40°46' W 016°18'0 0.4 14.6
2014-Dec-18 05:00N 40°46' W 016°17'0 0.0 14.6
2014-Dec-18 04:00N 40°46' W 016°17'1 0.5 14.6
2014-Dec-18 03:00N 40°47' W 016°17'2 0.4 14.6
2014-Dec-17 23:00N 40°48' W 016°16'0 0.1 14.6
2014-Dec-17 21:00N 40°49' W 016°16'1 1.1 14.6
2014-Dec-17 20:00N 40°50' W 016°16'0 0.4 14.6
2014-Dec-17 19:00N 40°50' W 016°16'0 0.0 14.6
2014-Dec-17 18:00N 40°50' W 016°16'1 1.1 14.6
2014-Dec-17 17:00N 40°50' W 016°18'1 0.6 14.6
2014-Dec-17 16:00N 40°51' W 016°18'2 0.9 14.6
2014-Dec-17 14:00N 40°51' W 016°15'0 0.0 14.6
2014-Dec-17 12:00N 40°51' W 016°15'0 0.0 14.6
2014-Dec-17 10:00N 40°51' W 016°15'2 1.9 14.6
2014-Dec-17 09:00N 40°53' W 016°14'0 0.0 14.6
2014-Dec-17 08:00N 40°53' W 016°14'1 0.6 14.6
2014-Dec-17 06:00N 40°54' W 016°13'3 0.8 14.6
2014-Dec-17 02:00N 40°56' W 016°11'2 0.5 14.6
2014-Dec-16 22:00N 40°57' W 016°09'0 0.0 14.6
2014-Dec-16 21:00N 40°57' W 016°09'0 0.0 14.6
2014-Dec-16 20:00N 40°57' W 016°09'1 0.3 14.6
2014-Dec-16 18:00N 40°57' W 016°08'9 0.5 14.6
2014-Dec-15 23:00N 41°03' W 016°00'0 0.0 14.7
2014-Dec-15 22:00N 41°03' W 016°00'0 0.0 14.7
2014-Dec-15 21:00N 41°03' W 016°00'1 0.7 14.7
2014-Dec-15 19:00N 41°04' W 015°58'4 3.5 14.7
2014-Dec-15 18:00N 41°07' W 015°56'0 0.0 14.7
2014-Dec-15 15:00N 41°07' W 015°56'0 0.0 14.7
2014-Dec-15 14:00N 41°07' W 015°56'2 1.5 14.7
2014-Dec-15 13:00N 41°08' W 015°57'0 0.0 14.7
2014-Dec-15 12:00N 41°08' W 015°57'0 0.0 14.7
2014-Dec-15 11:00N 41°08' W 015°57'2 1.0 14.7
2014-Dec-15 09:00N 41°07' W 015°55'0 0.0 14.7
2014-Dec-15 08:00N 41°07' W 015°55'0 0.0 14.7
2014-Dec-15 06:00N 41°07' W 015°55'6 5.5 14.7
2014-Dec-15 05:00N 41°12' W 015°51'0 0.0 14.7
2014-Dec-15 04:00N 41°12' W 015°51'0 0.0 14.7
2014-Dec-15 03:00N 41°12' W 015°51'0 0.0 14.7
2014-Dec-15 01:00N 41°12' W 015°51'1 0.3 14.7
2014-Dec-14 22:00N 41°13' W 015°52'1 0.6 14.7
2014-Dec-14 21:00N 41°13' W 015°52'0 0.0 14.7
2014-Dec-14 20:00N 41°13' W 015°52'0 0.0 14.7
2014-Dec-14 18:00N 41°13' W 015°52'0 0.0 14.7
2014-Dec-14 17:00N 41°13' W 015°52'1 0.9 14.7
2014-Dec-14 16:00N 41°13' W 015°50'0 0.0 14.7
2014-Dec-14 15:00N 41°13' W 015°50'0 0.5 14.7
2014-Dec-14 14:00N 41°13' W 015°51'1 0.4 14.7
2014-Dec-14 11:00N 41°14' W 015°50'4 3.6 14.7
2014-Dec-14 10:00N 41°16' W 015°46'0 0.0 14.7
2014-Dec-14 07:00N 41°16' W 015°46'0 0.0 14.7
2014-Dec-14 06:00N 41°16' W 015°46'2 1.9 14.7
2014-Dec-14 05:00N 41°18' W 015°46'2 1.0 14.7
2014-Dec-14 03:00N 41°20' W 015°47'0 0.1 14.7
2014-Dec-13 23:00N 41°19' W 015°47'16 0.6 14.7
2014-Dec-12 21:00N 41°32' W 015°33'2 0.5 15.0
2014-Dec-12 18:00N 41°33' W 015°31'2 2.4 15.0
2014-Dec-12 17:00N 41°35' W 015°32'5 0.5 15.0
2014-Dec-12 08:00N 41°39' W 015°35'1 0.3 15.1
2014-Dec-12 06:00N 41°39' W 015°35'0 0.5 15.1
2014-Dec-12 05:00N 41°39' W 015°35'0 0.0 15.1
2014-Dec-12 04:00N 41°39' W 015°35'3 0.6 15.2
2014-Dec-11 23:00N 41°42' W 015°32'0 0.0 15.2
2014-Dec-11 22:00N 41°42' W 015°32'3 2.6 15.2
2014-Dec-11 21:00N 41°44' W 015°30'1 0.2 15.2
2014-Dec-11 18:00N 41°44' W 015°31'0 0.0 15.4
2014-Dec-11 17:00N 41°44' W 015°31'1 0.8 15.4
2014-Dec-11 16:00N 41°44' W 015°31'2 1.8 15.4
2014-Dec-11 15:00N 41°45' W 015°33'2 2.0 15.3
2014-Dec-11 14:00N 41°45' W 015°31'0 0.0 15.3
2014-Dec-11 11:00N 41°45' W 015°31'1 0.3 15.3
2014-Dec-11 07:00N 41°45' W 015°29'   15.1

Dump ship's entire track history